Kota Waris — S6RJ — position and weather

sailwx.info

Track history (hours):
 
Tides and Currents Weather Stations Pressure Air Temp Water Temp Dewpoint Dewpoint Depression Visibility Wind Speed Wind Dir Waves Ship Positions

Kota Waris

Last reported at 2014-Dec-19 19:08 UTC. Time now 2014-Dec-20 04:25 UTC.
Position N 01°16' E 104°10'.

Length 185 m; draft 8.7 m.

Type: Ship (hazmat cat A). MMSI: 564482000.

Date/timePositionNaut miles runAvg speedWind from/ knotsBaromVisibWave heightAir tempDewpointWater temp
2014-Dec-19 19:08N 01°16' E 104°10'814.1
2014-Dec-19 18:32N 01°15' E 104°02'1312.8
2014-Dec-19 17:30N 01°12' E 103°49'7 6.8
2014-Dec-19 16:31N 01°17' E 103°45'1 0.6
2014-Dec-19 15:21N 01°17' E 103°46'0 0.0
2014-Dec-19 14:33N 01°17' E 103°46'0 0.0
2014-Dec-19 13:24N 01°17' E 103°46'0 0.0
2014-Dec-19 12:30N 01°17' E 103°46'0 0.0
2014-Dec-19 11:12N 01°17' E 103°46'0 0.0
2014-Dec-19 10:30N 01°17' E 103°46'0 0.0
2014-Dec-19 09:24N 01°17' E 103°46'0 0.0
2014-Dec-19 07:21N 01°17' E 103°46'0 0.0
2014-Dec-19 04:09N 01°17' E 103°46'0 0.0
2014-Dec-19 02:30N 01°17' E 103°46'0 0.0
2014-Dec-19 00:30N 01°17' E 103°46'0 0.0
2014-Dec-18 23:24N 01°17' E 103°46'0 0.0
2014-Dec-18 22:24N 01°17' E 103°46'0 0.0
2014-Dec-18 21:33N 01°17' E 103°46'0 0.0
2014-Dec-18 18:06N 01°17' E 103°46'0 0.0
2014-Dec-18 17:12N 01°17' E 103°46'0 0.0
2014-Dec-18 16:30N 01°17' E 103°46'0 0.0
2014-Dec-18 15:33N 01°17' E 103°46'1 1.4
2014-Dec-18 14:32N 01°17' E 103°45'4 3.6
2014-Dec-18 13:30N 01°15' E 103°48'0 0.0
2014-Dec-18 12:33N 01°15' E 103°48'0 0.0
2014-Dec-18 11:33N 01°15' E 103°48'0 0.1
2014-Dec-18 10:33N 01°15' E 103°48'0 0.1
2014-Dec-18 09:28N 01°15' E 103°48'0 0.2
2014-Dec-18 08:32N 01°15' E 103°48'0 0.2
2014-Dec-18 07:33N 01°15' E 103°48'6 6.3
2014-Dec-18 06:33N 01°14' E 103°42'6210.0
2014-Dec-18 00:22N 01°38' E 102°45'2116.5
2014-Dec-17 23:06N 01°48' E 102°27'916.9
2014-Dec-17 22:33N 01°52' E 102°18'  
Track history (hours):
 
Tides and Currents Weather Stations Pressure Air Temp Water Temp Dewpoint Dewpoint Depression Visibility Wind Speed Wind Dir Waves Ship Positions

Kota Waris

Last reported at 2014-Dec-19 19:08 UTC. Time now 2014-Dec-20 04:25 UTC.
Position N 01°16' E 104°10'.

Length 185 m; draft 8.7 m.

Type: Ship (hazmat cat A). MMSI: 564482000.

Date/timePositionNaut miles runAvg speedWind from/ knotsBaromVisibWave heightAir tempDewpointWater temp
2014-Dec-19 19:08N 01°16' E 104°10'814.1
2014-Dec-19 18:32N 01°15' E 104°02'1312.8
2014-Dec-19 17:30N 01°12' E 103°49'7 6.8
2014-Dec-19 16:31N 01°17' E 103°45'1 0.6
2014-Dec-19 15:21N 01°17' E 103°46'0 0.0
2014-Dec-19 14:33N 01°17' E 103°46'0 0.0
2014-Dec-19 13:24N 01°17' E 103°46'0 0.0
2014-Dec-19 12:30N 01°17' E 103°46'0 0.0
2014-Dec-19 11:12N 01°17' E 103°46'0 0.0
2014-Dec-19 10:30N 01°17' E 103°46'0 0.0
2014-Dec-19 09:24N 01°17' E 103°46'0 0.0
2014-Dec-19 07:21N 01°17' E 103°46'0 0.0
2014-Dec-19 04:09N 01°17' E 103°46'0 0.0
2014-Dec-19 02:30N 01°17' E 103°46'0 0.0
2014-Dec-19 00:30N 01°17' E 103°46'0 0.0
2014-Dec-18 23:24N 01°17' E 103°46'0 0.0
2014-Dec-18 22:24N 01°17' E 103°46'0 0.0
2014-Dec-18 21:33N 01°17' E 103°46'0 0.0
2014-Dec-18 18:06N 01°17' E 103°46'0 0.0
2014-Dec-18 17:12N 01°17' E 103°46'0 0.0
2014-Dec-18 16:30N 01°17' E 103°46'0 0.0
2014-Dec-18 15:33N 01°17' E 103°46'1 1.4
2014-Dec-18 14:32N 01°17' E 103°45'4 3.6
2014-Dec-18 13:30N 01°15' E 103°48'0 0.0
2014-Dec-18 12:33N 01°15' E 103°48'0 0.0
2014-Dec-18 11:33N 01°15' E 103°48'0 0.1
2014-Dec-18 10:33N 01°15' E 103°48'0 0.1
2014-Dec-18 09:28N 01°15' E 103°48'0 0.2
2014-Dec-18 08:32N 01°15' E 103°48'0 0.2
2014-Dec-18 07:33N 01°15' E 103°48'6 6.3
2014-Dec-18 06:33N 01°14' E 103°42'6210.0
2014-Dec-18 00:22N 01°38' E 102°45'2116.5
2014-Dec-17 23:06N 01°48' E 102°27'916.9
2014-Dec-17 22:33N 01°52' E 102°18'  

Dump ship's entire track history